Ana Sayfa
METAR-TAF:

METAR-TAF

Havaalanları :

Kasane, Botsvana

Enlem: 17-49S, Boylam: 025-09E, yükseklik: 968 m

Güncel hava durumu gözlemi

Rapor saat 18:00 UTC de 3 saat ve 51 dakika önce yapıldı.
Rüzgar güneydoğudan 3 kt
Sıcaklık 16°C
Nem 48%
Basınç 1023 hPa
Görüş mesafesi 10 km veya daha fazla
1500 m altında bulut yok ve kümülonimbus yok

METAR: FBKE 241800Z 13003KT CAVOK 16/05 Q1023

Saat: 23:51 (21:51 UTC)

Tahmin

Rapor saat 12:00 UTC de 9 saat ve 51 dakika önce yapıldı.
Ayın 24'si saat 15 UTC'den ayın 24'si saat 24 UTC'ye kadar geçerli Tahmin
Rüzgar doğu/güneydoğudan 10 kt
Görüş mesafesi 10 km veya daha fazla
1500 m altında bulut yok ve kümülonimbus yok

TAF: FBKE 241200Z 2415/2424 12010KT CAVOK

4.000'den fazla havaalanı için hava durumu gözlemleri ve tahminleri (METAR ve TAF raporları).

Kullanılabilir istasyonlar harita üzerinde sarı ve kırmızı noktalarla gösterilir.

İstasyonun adını görmek için fareyi noktanın üzerinde gezdirin.

Sonrasında hava gözlem ve tahminlerini görmek için tıklayın.

Haritayı değiştirmek için: yaklaştırmak için siyah artı işaretli yeşil düğmeye ve uzaklaştırmak için de eksi işaretli düğmeye hızla tıklayın; bitişik haritalar için yeşil okları kullanın.


METAR-TAF: